sensor_id;sensor_type;location;lat;lon;timestamp;temperature;humidity
27224;DHT22;14965;50.660;13.226;2023-03-01T00:17:53;-6.50;99.90
27224;DHT22;14965;50.660;13.226;2023-03-01T00:24:58;-6.60;99.90
27224;DHT22;14965;50.660;13.226;2023-03-01T00:39:43;-6.80;99.90
27224;DHT22;14965;50.660;13.226;2023-03-01T00:42:27;-6.80;99.90
27224;DHT22;14965;50.660;13.226;2023-03-01T01:29:34;-7.00;99.90
27224;DHT22;14965;50.660;13.226;2023-03-01T01:32:41;-7.10;99.90
27224;DHT22;14965;50.660;13.226;2023-03-01T01:42:48;-7.30;99.90
27224;DHT22;14965;50.660;13.226;2023-03-01T01:45:49;-7.40;99.90
27224;DHT22;14965;50.660;13.226;2023-03-01T01:50:01;-7.30;99.90
27224;DHT22;14965;50.660;13.226;2023-03-01T01:56:31;-7.50;99.90
27224;DHT22;14965;50.660;13.226;2023-03-01T02:06:55;-7.40;99.90
27224;DHT22;14965;50.660;13.226;2023-03-01T02:18:20;-7.50;99.90
27224;DHT22;14965;50.660;13.226;2023-03-01T04:11:24;-7.90;99.90
27224;DHT22;14965;50.660;13.226;2023-03-01T04:21:27;-7.90;99.90
27224;DHT22;14965;50.660;13.226;2023-03-01T04:23:00;-7.80;99.90
27224;DHT22;14965;50.660;13.226;2023-03-01T04:35:54;-7.90;99.90
27224;DHT22;14965;50.660;13.226;2023-03-01T04:39:33;-8.00;99.90
27224;DHT22;14965;50.660;13.226;2023-03-01T04:42:49;-8.00;99.90
27224;DHT22;14965;50.660;13.226;2023-03-01T04:49:22;-8.10;99.90
27224;DHT22;14965;50.660;13.226;2023-03-01T04:52:12;-8.10;99.90
27224;DHT22;14965;50.660;13.226;2023-03-01T04:55:08;-8.20;99.90
27224;DHT22;14965;50.660;13.226;2023-03-01T04:57:45;-8.00;99.90
27224;DHT22;14965;50.660;13.226;2023-03-01T05:00:15;-8.20;99.90
27224;DHT22;14965;50.660;13.226;2023-03-01T05:02:51;-8.20;99.90
27224;DHT22;14965;50.660;13.226;2023-03-01T05:05:22;-8.20;99.90
27224;DHT22;14965;50.660;13.226;2023-03-01T05:07:54;-8.20;99.90
27224;DHT22;14965;50.660;13.226;2023-03-01T05:10:28;-8.20;99.90
27224;DHT22;14965;50.660;13.226;2023-03-01T05:12:59;-8.20;99.90
27224;DHT22;14965;50.660;13.226;2023-03-01T05:20:02;-8.30;99.90
27224;DHT22;14965;50.660;13.226;2023-03-01T05:22:47;-8.30;99.90
27224;DHT22;14965;50.660;13.226;2023-03-01T05:25:29;-8.30;99.90
27224;DHT22;14965;50.660;13.226;2023-03-01T05:28:07;-8.40;99.90
27224;DHT22;14965;50.660;13.226;2023-03-01T05:42:39;-8.40;99.90
27224;DHT22;14965;50.660;13.226;2023-03-01T05:45:43;-8.40;99.90
27224;DHT22;14965;50.660;13.226;2023-03-01T05:48:32;-8.40;99.90
27224;DHT22;14965;50.660;13.226;2023-03-01T05:51:21;-8.50;99.90
27224;DHT22;14965;50.660;13.226;2023-03-01T05:54:08;-8.60;99.90
27224;DHT22;14965;50.660;13.226;2023-03-01T06:11:58;-8.40;99.90
27224;DHT22;14965;50.660;13.226;2023-03-01T06:21:34;-8.20;99.90
27224;DHT22;14965;50.660;13.226;2023-03-01T06:28:00;-8.20;99.90
27224;DHT22;14965;50.660;13.226;2023-03-01T06:31:18;-8.30;99.90
27224;DHT22;14965;50.660;13.226;2023-03-01T06:34:04;-8.20;99.90
27224;DHT22;14965;50.660;13.226;2023-03-01T06:37:33;-8.10;99.90
27224;DHT22;14965;50.660;13.226;2023-03-01T06:40:35;-8.10;99.90
27224;DHT22;14965;50.660;13.226;2023-03-01T06:43:42;-8.10;99.90
27224;DHT22;14965;50.660;13.226;2023-03-01T06:46:44;-8.10;99.90
27224;DHT22;14965;50.660;13.226;2023-03-01T06:49:31;-7.90;99.90
27224;DHT22;14965;50.660;13.226;2023-03-01T06:52:09;-7.80;99.90
27224;DHT22;14965;50.660;13.226;2023-03-01T06:58:36;-7.70;99.90
27224;DHT22;14965;50.660;13.226;2023-03-01T07:01:20;-7.60;99.90
27224;DHT22;14965;50.660;13.226;2023-03-01T07:07:58;-7.40;99.90
27224;DHT22;14965;50.660;13.226;2023-03-01T07:10:48;-7.40;99.90
27224;DHT22;14965;50.660;13.226;2023-03-01T07:13:29;-7.30;99.90
27224;DHT22;14965;50.660;13.226;2023-03-01T07:15:56;-7.30;99.90
27224;DHT22;14965;50.660;13.226;2023-03-01T07:18:25;-7.20;99.90
27224;DHT22;14965;50.660;13.226;2023-03-01T07:20:54;-7.00;99.90
27224;DHT22;14965;50.660;13.226;2023-03-01T07:23:26;-6.90;99.90
27224;DHT22;14965;50.660;13.226;2023-03-01T07:25:57;-6.80;99.90
27224;DHT22;14965;50.660;13.226;2023-03-01T07:28:24;-6.60;99.90
27224;DHT22;14965;50.660;13.226;2023-03-01T07:30:52;-6.60;99.90
27224;DHT22;14965;50.660;13.226;2023-03-01T07:33:21;-6.50;99.90
27224;DHT22;14965;50.660;13.226;2023-03-01T07:35:56;-6.40;99.90
27224;DHT22;14965;50.660;13.226;2023-03-01T07:38:25;-6.30;99.90
27224;DHT22;14965;50.660;13.226;2023-03-01T07:41:00;-6.20;99.90
27224;DHT22;14965;50.660;13.226;2023-03-01T07:43:27;-6.10;99.90
27224;DHT22;14965;50.660;13.226;2023-03-01T07:45:54;-6.00;99.90
27224;DHT22;14965;50.660;13.226;2023-03-01T07:48:20;-5.90;99.90
27224;DHT22;14965;50.660;13.226;2023-03-01T07:50:46;-5.80;99.90
27224;DHT22;14965;50.660;13.226;2023-03-01T07:53:15;-5.70;99.90
27224;DHT22;14965;50.660;13.226;2023-03-01T07:55:44;-5.60;99.90
27224;DHT22;14965;50.660;13.226;2023-03-01T07:58:11;-5.50;99.90
27224;DHT22;14965;50.660;13.226;2023-03-01T08:00:37;-5.30;99.90
27224;DHT22;14965;50.660;13.226;2023-03-01T08:03:03;-5.20;99.90
27224;DHT22;14965;50.660;13.226;2023-03-01T08:05:29;-5.20;99.90
27224;DHT22;14965;50.660;13.226;2023-03-01T08:07:56;-5.10;99.90
27224;DHT22;14965;50.660;13.226;2023-03-01T08:10:22;-4.90;99.90
27224;DHT22;14965;50.660;13.226;2023-03-01T08:12:48;-4.70;99.90
27224;DHT22;14965;50.660;13.226;2023-03-01T08:15:18;-4.60;99.90
27224;DHT22;14965;50.660;13.226;2023-03-01T08:17:44;-4.60;99.90
27224;DHT22;14965;50.660;13.226;2023-03-01T08:20:10;-4.50;99.90
27224;DHT22;14965;50.660;13.226;2023-03-01T08:22:36;-4.40;99.90
27224;DHT22;14965;50.660;13.226;2023-03-01T08:25:03;-4.30;99.90
27224;DHT22;14965;50.660;13.226;2023-03-01T08:27:29;-4.20;99.90
27224;DHT22;14965;50.660;13.226;2023-03-01T08:29:55;-4.00;99.90
27224;DHT22;14965;50.660;13.226;2023-03-01T08:32:24;-4.00;99.90
27224;DHT22;14965;50.660;13.226;2023-03-01T08:34:51;-3.90;99.90
27224;DHT22;14965;50.660;13.226;2023-03-01T08:37:20;-3.80;99.90
27224;DHT22;14965;50.660;13.226;2023-03-01T08:39:48;-3.70;99.90
27224;DHT22;14965;50.660;13.226;2023-03-01T08:42:19;-3.60;99.90
27224;DHT22;14965;50.660;13.226;2023-03-01T08:44:45;-3.40;99.90
27224;DHT22;14965;50.660;13.226;2023-03-01T08:47:14;-3.30;99.90
27224;DHT22;14965;50.660;13.226;2023-03-01T08:49:41;-3.30;99.90
27224;DHT22;14965;50.660;13.226;2023-03-01T08:52:08;-3.10;99.90
27224;DHT22;14965;50.660;13.226;2023-03-01T08:54:34;-3.00;99.90
27224;DHT22;14965;50.660;13.226;2023-03-01T08:57:01;-2.80;99.90
27224;DHT22;14965;50.660;13.226;2023-03-01T08:59:28;-2.60;99.90
27224;DHT22;14965;50.660;13.226;2023-03-01T09:01:54;-2.60;99.90
27224;DHT22;14965;50.660;13.226;2023-03-01T09:04:24;-2.40;99.90
27224;DHT22;14965;50.660;13.226;2023-03-01T09:06:51;-2.20;99.90
27224;DHT22;14965;50.660;13.226;2023-03-01T09:09:17;-2.00;99.90
27224;DHT22;14965;50.660;13.226;2023-03-01T09:11:44;-1.80;99.90
27224;DHT22;14965;50.660;13.226;2023-03-01T09:14:11;-1.80;99.90
27224;DHT22;14965;50.660;13.226;2023-03-01T09:16:37;-1.70;99.90
27224;DHT22;14965;50.660;13.226;2023-03-01T09:19:03;-1.60;99.90
27224;DHT22;14965;50.660;13.226;2023-03-01T09:21:30;-1.40;99.90
27224;DHT22;14965;50.660;13.226;2023-03-01T09:23:57;-1.30;99.90
27224;DHT22;14965;50.660;13.226;2023-03-01T09:26:24;-1.10;99.90
27224;DHT22;14965;50.660;13.226;2023-03-01T09:28:53;-0.90;99.90
27224;DHT22;14965;50.660;13.226;2023-03-01T09:31:21;-0.80;99.90
27224;DHT22;14965;50.660;13.226;2023-03-01T09:33:50;-0.60;99.90
27224;DHT22;14965;50.660;13.226;2023-03-01T09:36:18;-0.50;99.90
27224;DHT22;14965;50.660;13.226;2023-03-01T09:38:46;-0.50;99.90
27224;DHT22;14965;50.660;13.226;2023-03-01T09:41:36;-0.40;99.90
27224;DHT22;14965;50.660;13.226;2023-03-01T09:44:15;-0.20;99.90
27224;DHT22;14965;50.660;13.226;2023-03-01T09:46:47;0.00;99.90
27224;DHT22;14965;50.660;13.226;2023-03-01T09:49:15;0.20;99.90
27224;DHT22;14965;50.660;13.226;2023-03-01T09:51:54;0.30;99.90
27224;DHT22;14965;50.660;13.226;2023-03-01T09:54:22;0.50;99.90
27224;DHT22;14965;50.660;13.226;2023-03-01T09:56:57;0.50;99.90
27224;DHT22;14965;50.660;13.226;2023-03-01T09:59:37;0.70;99.90
27224;DHT22;14965;50.660;13.226;2023-03-01T10:02:23;0.90;99.90
27224;DHT22;14965;50.660;13.226;2023-03-01T10:05:03;1.10;99.90
27224;DHT22;14965;50.660;13.226;2023-03-01T10:07:44;1.30;99.90
27224;DHT22;14965;50.660;13.226;2023-03-01T10:10:26;1.40;99.90
27224;DHT22;14965;50.660;13.226;2023-03-01T10:13:00;1.50;99.90
27224;DHT22;14965;50.660;13.226;2023-03-01T10:15:41;1.70;99.90
27224;DHT22;14965;50.660;13.226;2023-03-01T10:18:21;1.80;99.90
27224;DHT22;14965;50.660;13.226;2023-03-01T10:21:02;2.00;99.90
27224;DHT22;14965;50.660;13.226;2023-03-01T10:23:49;2.20;99.90
27224;DHT22;14965;50.660;13.226;2023-03-01T10:27:00;2.20;99.90
27224;DHT22;14965;50.660;13.226;2023-03-01T10:40:06;2.80;99.90
27224;DHT22;14965;50.660;13.226;2023-03-01T10:42:38;2.80;99.90
27224;DHT22;14965;50.660;13.226;2023-03-01T10:45:26;2.90;99.90
27224;DHT22;14965;50.660;13.226;2023-03-01T10:48:08;3.00;99.90
27224;DHT22;14965;50.660;13.226;2023-03-01T10:50:40;2.90;99.90
27224;DHT22;14965;50.660;13.226;2023-03-01T10:53:23;2.80;99.90
27224;DHT22;14965;50.660;13.226;2023-03-01T10:56:06;2.70;99.90
27224;DHT22;14965;50.660;13.226;2023-03-01T10:58:36;2.60;99.90
27224;DHT22;14965;50.660;13.226;2023-03-01T11:01:06;2.60;99.90
27224;DHT22;14965;50.660;13.226;2023-03-01T11:04:10;2.70;99.90
27224;DHT22;14965;50.660;13.226;2023-03-01T11:06:40;2.60;99.90
27224;DHT22;14965;50.660;13.226;2023-03-01T11:09:17;2.60;99.90
27224;DHT22;14965;50.660;13.226;2023-03-01T11:11:52;2.70;99.90
27224;DHT22;14965;50.660;13.226;2023-03-01T11:14:21;2.70;99.90
27224;DHT22;14965;50.660;13.226;2023-03-01T11:16:58;2.70;99.90
27224;DHT22;14965;50.660;13.226;2023-03-01T11:19:26;2.60;99.90
27224;DHT22;14965;50.660;13.226;2023-03-01T11:21:57;2.50;99.90
27224;DHT22;14965;50.660;13.226;2023-03-01T11:24:33;2.60;99.90
27224;DHT22;14965;50.660;13.226;2023-03-01T11:27:08;2.60;99.90
27224;DHT22;14965;50.660;13.226;2023-03-01T11:29:45;2.60;99.90
27224;DHT22;14965;50.660;13.226;2023-03-01T11:32:14;2.60;99.90
27224;DHT22;14965;50.660;13.226;2023-03-01T11:34:45;2.70;99.90
27224;DHT22;14965;50.660;13.226;2023-03-01T11:37:22;2.80;99.90
27224;DHT22;14965;50.660;13.226;2023-03-01T11:40:01;2.90;99.90
27224;DHT22;14965;50.660;13.226;2023-03-01T11:42:43;2.80;99.90
27224;DHT22;14965;50.660;13.226;2023-03-01T11:45:18;2.70;99.90
27224;DHT22;14965;50.660;13.226;2023-03-01T11:48:03;2.70;99.90
27224;DHT22;14965;50.660;13.226;2023-03-01T11:50:46;2.70;99.90
27224;DHT22;14965;50.660;13.226;2023-03-01T11:53:28;2.80;99.90
27224;DHT22;14965;50.660;13.226;2023-03-01T11:56:25;2.80;99.90
27224;DHT22;14965;50.660;13.226;2023-03-01T12:02:27;2.80;99.90
27224;DHT22;14965;50.660;13.226;2023-03-01T12:05:28;2.80;99.90
27224;DHT22;14965;50.660;13.226;2023-03-01T12:08:13;2.80;99.90
27224;DHT22;14965;50.660;13.226;2023-03-01T12:10:48;2.90;99.90
27224;DHT22;14965;50.660;13.226;2023-03-01T12:14:02;2.90;99.90
27224;DHT22;14965;50.660;13.226;2023-03-01T12:17:17;2.80;99.90
27224;DHT22;14965;50.660;13.226;2023-03-01T12:20:10;2.70;99.90
27224;DHT22;14965;50.660;13.226;2023-03-01T12:26:16;2.30;99.90
27224;DHT22;14965;50.660;13.226;2023-03-01T12:37:03;2.20;99.90
27224;DHT22;14965;50.660;13.226;2023-03-01T12:39:57;2.20;99.90
27224;DHT22;14965;50.660;13.226;2023-03-01T12:42:46;2.10;99.90
27224;DHT22;14965;50.660;13.226;2023-03-01T12:45:43;2.20;99.90
27224;DHT22;14965;50.660;13.226;2023-03-01T12:48:35;2.00;99.90
27224;DHT22;14965;50.660;13.226;2023-03-01T12:51:11;1.90;99.90
27224;DHT22;14965;50.660;13.226;2023-03-01T12:53:45;1.80;99.90
27224;DHT22;14965;50.660;13.226;2023-03-01T12:56:16;1.80;99.90
27224;DHT22;14965;50.660;13.226;2023-03-01T12:58:51;1.80;99.90
27224;DHT22;14965;50.660;13.226;2023-03-01T13:01:33;1.80;99.90
27224;DHT22;14965;50.660;13.226;2023-03-01T13:04:16;1.80;99.90
27224;DHT22;14965;50.660;13.226;2023-03-01T13:06:58;1.80;99.90
27224;DHT22;14965;50.660;13.226;2023-03-01T13:09:43;1.80;99.90
27224;DHT22;14965;50.660;13.226;2023-03-01T13:12:46;1.90;99.90
27224;DHT22;14965;50.660;13.226;2023-03-01T13:15:32;1.90;99.90
27224;DHT22;14965;50.660;13.226;2023-03-01T13:18:02;1.90;99.90
27224;DHT22;14965;50.660;13.226;2023-03-01T13:20:33;1.90;99.90
27224;DHT22;14965;50.660;13.226;2023-03-01T13:23:13;1.90;99.90
27224;DHT22;14965;50.660;13.226;2023-03-01T13:26:10;1.80;99.90
27224;DHT22;14965;50.660;13.226;2023-03-01T13:28:53;1.70;99.90
27224;DHT22;14965;50.660;13.226;2023-03-01T13:34:46;1.70;99.90
27224;DHT22;14965;50.660;13.226;2023-03-01T13:37:31;1.80;99.90
27224;DHT22;14965;50.660;13.226;2023-03-01T13:40:04;1.80;99.90
27224;DHT22;14965;50.660;13.226;2023-03-01T13:42:51;1.90;99.90
27224;DHT22;14965;50.660;13.226;2023-03-01T13:45:34;2.00;99.90
27224;DHT22;14965;50.660;13.226;2023-03-01T13:48:10;1.90;99.90
27224;DHT22;14965;50.660;13.226;2023-03-01T13:50:46;1.90;99.90
27224;DHT22;14965;50.660;13.226;2023-03-01T13:53:18;1.90;99.90
27224;DHT22;14965;50.660;13.226;2023-03-01T13:55:49;1.90;99.90
27224;DHT22;14965;50.660;13.226;2023-03-01T13:58:22;1.80;99.90
27224;DHT22;14965;50.660;13.226;2023-03-01T14:00:56;1.90;99.90
27224;DHT22;14965;50.660;13.226;2023-03-01T14:03:24;1.80;99.90
27224;DHT22;14965;50.660;13.226;2023-03-01T14:06:04;1.80;99.90
27224;DHT22;14965;50.660;13.226;2023-03-01T14:08:31;1.80;99.90
27224;DHT22;14965;50.660;13.226;2023-03-01T14:17:49;1.80;99.90
27224;DHT22;14965;50.660;13.226;2023-03-01T14:20:25;1.80;99.90
27224;DHT22;14965;50.660;13.226;2023-03-01T14:22:55;1.80;99.90
27224;DHT22;14965;50.660;13.226;2023-03-01T14:25:26;1.80;99.90
27224;DHT22;14965;50.660;13.226;2023-03-01T14:27:59;1.80;99.90
27224;DHT22;14965;50.660;13.226;2023-03-01T14:30:32;1.90;99.90
27224;DHT22;14965;50.660;13.226;2023-03-01T14:33:04;1.80;99.90
27224;DHT22;14965;50.660;13.226;2023-03-01T14:35:33;1.80;99.90
27224;DHT22;14965;50.660;13.226;2023-03-01T14:38:00;1.70;99.90
27224;DHT22;14965;50.660;13.226;2023-03-01T14:40:28;1.70;99.90
27224;DHT22;14965;50.660;13.226;2023-03-01T14:42:58;1.70;99.90
27224;DHT22;14965;50.660;13.226;2023-03-01T14:45:29;1.70;99.90
27224;DHT22;14965;50.660;13.226;2023-03-01T14:47:55;1.70;99.90
27224;DHT22;14965;50.660;13.226;2023-03-01T14:50:28;1.70;99.90
27224;DHT22;14965;50.660;13.226;2023-03-01T14:53:16;1.60;99.90
27224;DHT22;14965;50.660;13.226;2023-03-01T14:55:46;1.60;99.90
27224;DHT22;14965;50.660;13.226;2023-03-01T14:58:19;1.70;99.90
27224;DHT22;14965;50.660;13.226;2023-03-01T15:00:50;1.70;99.90
27224;DHT22;14965;50.660;13.226;2023-03-01T15:03:26;1.70;99.90
27224;DHT22;14965;50.660;13.226;2023-03-01T15:05:56;1.70;99.90
27224;DHT22;14965;50.660;13.226;2023-03-01T15:08:25;1.70;99.90
27224;DHT22;14965;50.660;13.226;2023-03-01T15:10:58;1.70;99.90
27224;DHT22;14965;50.660;13.226;2023-03-01T15:13:30;1.70;99.90
27224;DHT22;14965;50.660;13.226;2023-03-01T15:16:05;1.70;99.90
27224;DHT22;14965;50.660;13.226;2023-03-01T15:18:34;1.70;99.90
27224;DHT22;14965;50.660;13.226;2023-03-01T15:21:13;1.70;99.90
27224;DHT22;14965;50.660;13.226;2023-03-01T15:23:49;1.60;99.90
27224;DHT22;14965;50.660;13.226;2023-03-01T15:26:23;1.60;99.90
27224;DHT22;14965;50.660;13.226;2023-03-01T15:28:52;1.60;99.90
27224;DHT22;14965;50.660;13.226;2023-03-01T15:31:25;1.60;99.90
27224;DHT22;14965;50.660;13.226;2023-03-01T15:33:53;1.60;99.90
27224;DHT22;14965;50.660;13.226;2023-03-01T15:36:39;1.50;99.90
27224;DHT22;14965;50.660;13.226;2023-03-01T15:39:25;1.50;99.90
27224;DHT22;14965;50.660;13.226;2023-03-01T15:42:06;1.50;99.90
27224;DHT22;14965;50.660;13.226;2023-03-01T15:44:35;1.40;99.90
27224;DHT22;14965;50.660;13.226;2023-03-01T15:47:08;1.50;99.90
27224;DHT22;14965;50.660;13.226;2023-03-01T15:49:52;1.40;99.90
27224;DHT22;14965;50.660;13.226;2023-03-01T15:57:38;1.40;99.90
27224;DHT22;14965;50.660;13.226;2023-03-01T16:00:05;1.40;99.90
27224;DHT22;14965;50.660;13.226;2023-03-01T16:02:36;1.40;99.90
27224;DHT22;14965;50.660;13.226;2023-03-01T16:05:04;1.40;99.90
27224;DHT22;14965;50.660;13.226;2023-03-01T16:07:30;1.40;99.90
27224;DHT22;14965;50.660;13.226;2023-03-01T16:09:56;1.30;99.90
27224;DHT22;14965;50.660;13.226;2023-03-01T16:12:23;1.30;99.90
27224;DHT22;14965;50.660;13.226;2023-03-01T16:14:49;1.20;99.90
27224;DHT22;14965;50.660;13.226;2023-03-01T16:19:52;1.10;99.90
27224;DHT22;14965;50.660;13.226;2023-03-01T16:22:18;1.10;99.90
27224;DHT22;14965;50.660;13.226;2023-03-01T16:24:43;1.10;99.90
27224;DHT22;14965;50.660;13.226;2023-03-01T16:27:09;1.10;99.90
27224;DHT22;14965;50.660;13.226;2023-03-01T16:29:35;1.00;99.90
27224;DHT22;14965;50.660;13.226;2023-03-01T16:32:01;0.90;99.90
27224;DHT22;14965;50.660;13.226;2023-03-01T16:34:28;0.90;99.90
27224;DHT22;14965;50.660;13.226;2023-03-01T16:36:55;0.80;99.90
27224;DHT22;14965;50.660;13.226;2023-03-01T16:39:21;0.80;99.90
27224;DHT22;14965;50.660;13.226;2023-03-01T16:41:47;0.70;99.90
27224;DHT22;14965;50.660;13.226;2023-03-01T16:44:12;0.70;99.90
27224;DHT22;14965;50.660;13.226;2023-03-01T16:46:41;0.60;99.90
27224;DHT22;14965;50.660;13.226;2023-03-01T16:49:08;0.60;99.90
27224;DHT22;14965;50.660;13.226;2023-03-01T16:51:34;0.60;99.90
27224;DHT22;14965;50.660;13.226;2023-03-01T16:54:01;0.50;99.90
27224;DHT22;14965;50.660;13.226;2023-03-01T16:56:33;0.50;99.90
27224;DHT22;14965;50.660;13.226;2023-03-01T16:58:59;0.50;99.90
27224;DHT22;14965;50.660;13.226;2023-03-01T17:01:28;0.40;99.90
27224;DHT22;14965;50.660;13.226;2023-03-01T17:03:54;0.30;99.90
27224;DHT22;14965;50.660;13.226;2023-03-01T17:06:21;0.30;99.90
27224;DHT22;14965;50.660;13.226;2023-03-01T17:08:47;0.20;99.90
27224;DHT22;14965;50.660;13.226;2023-03-01T17:11:16;0.20;99.90
27224;DHT22;14965;50.660;13.226;2023-03-01T17:13:46;0.10;99.90
27224;DHT22;14965;50.660;13.226;2023-03-01T17:16:14;0.10;99.90
27224;DHT22;14965;50.660;13.226;2023-03-01T17:18:42;0.10;99.90
27224;DHT22;14965;50.660;13.226;2023-03-01T17:21:09;0.10;99.90
27224;DHT22;14965;50.660;13.226;2023-03-01T17:23:37;0.00;99.90
27224;DHT22;14965;50.660;13.226;2023-03-01T17:26:05;0.00;99.90
27224;DHT22;14965;50.660;13.226;2023-03-01T17:28:34;0.00;99.90
27224;DHT22;14965;50.660;13.226;2023-03-01T17:31:03;-0.10;99.90
27224;DHT22;14965;50.660;13.226;2023-03-01T17:33:30;-0.10;99.90
27224;DHT22;14965;50.660;13.226;2023-03-01T17:35:57;-0.10;99.90
27224;DHT22;14965;50.660;13.226;2023-03-01T17:38:24;-0.20;99.90
27224;DHT22;14965;50.660;13.226;2023-03-01T17:40:51;-0.20;99.90
27224;DHT22;14965;50.660;13.226;2023-03-01T17:43:17;-0.30;99.90
27224;DHT22;14965;50.660;13.226;2023-03-01T17:45:45;-0.30;99.90
27224;DHT22;14965;50.660;13.226;2023-03-01T17:48:11;-0.40;99.90
27224;DHT22;14965;50.660;13.226;2023-03-01T17:50:38;-0.50;99.90
27224;DHT22;14965;50.660;13.226;2023-03-01T17:53:04;-0.50;99.90
27224;DHT22;14965;50.660;13.226;2023-03-01T17:55:30;-0.60;99.90
27224;DHT22;14965;50.660;13.226;2023-03-01T17:57:56;-0.70;99.90
27224;DHT22;14965;50.660;13.226;2023-03-01T18:00:23;-0.80;99.90
27224;DHT22;14965;50.660;13.226;2023-03-01T18:02:52;-0.80;99.90
27224;DHT22;14965;50.660;13.226;2023-03-01T18:05:18;-0.80;99.90
27224;DHT22;14965;50.660;13.226;2023-03-01T18:07:44;-0.70;99.90
27224;DHT22;14965;50.660;13.226;2023-03-01T18:10:10;-0.90;99.90
27224;DHT22;14965;50.660;13.226;2023-03-01T18:12:37;-1.10;99.90
27224;DHT22;14965;50.660;13.226;2023-03-01T18:15:04;-1.20;99.90
27224;DHT22;14965;50.660;13.226;2023-03-01T18:17:30;-1.20;99.90
27224;DHT22;14965;50.660;13.226;2023-03-01T18:19:57;-1.30;99.90
27224;DHT22;14965;50.660;13.226;2023-03-01T18:22:23;-1.30;99.90
27224;DHT22;14965;50.660;13.226;2023-03-01T18:24:50;-1.30;99.90
27224;DHT22;14965;50.660;13.226;2023-03-01T18:27:16;-1.30;99.90
27224;DHT22;14965;50.660;13.226;2023-03-01T18:29:43;-1.30;99.90
27224;DHT22;14965;50.660;13.226;2023-03-01T18:32:09;-1.30;99.90
27224;DHT22;14965;50.660;13.226;2023-03-01T18:34:35;-1.40;99.90
27224;DHT22;14965;50.660;13.226;2023-03-01T18:37:02;-1.40;99.90
27224;DHT22;14965;50.660;13.226;2023-03-01T18:39:28;-1.40;99.90
27224;DHT22;14965;50.660;13.226;2023-03-01T18:41:54;-1.40;99.90
27224;DHT22;14965;50.660;13.226;2023-03-01T18:44:20;-1.60;99.90
27224;DHT22;14965;50.660;13.226;2023-03-01T18:46:46;-1.70;99.90
27224;DHT22;14965;50.660;13.226;2023-03-01T18:49:13;-1.80;99.90
27224;DHT22;14965;50.660;13.226;2023-03-01T18:51:41;-1.90;99.90
27224;DHT22;14965;50.660;13.226;2023-03-01T18:54:10;-1.90;99.90
27224;DHT22;14965;50.660;13.226;2023-03-01T18:56:36;-1.90;99.90
27224;DHT22;14965;50.660;13.226;2023-03-01T18:59:02;-1.90;99.90
27224;DHT22;14965;50.660;13.226;2023-03-01T19:01:30;-1.90;99.90
27224;DHT22;14965;50.660;13.226;2023-03-01T19:03:57;-1.90;99.90
27224;DHT22;14965;50.660;13.226;2023-03-01T19:06:27;-1.90;99.90
27224;DHT22;14965;50.660;13.226;2023-03-01T19:08:55;-1.90;99.90
27224;DHT22;14965;50.660;13.226;2023-03-01T19:11:23;-2.00;99.90
27224;DHT22;14965;50.660;13.226;2023-03-01T19:13:49;-2.00;99.90
27224;DHT22;14965;50.660;13.226;2023-03-01T19:16:18;-2.00;99.90
27224;DHT22;14965;50.660;13.226;2023-03-01T19:18:47;-2.00;99.90
27224;DHT22;14965;50.660;13.226;2023-03-01T19:21:13;-2.00;99.90
27224;DHT22;14965;50.660;13.226;2023-03-01T19:23:39;-2.00;99.90
27224;DHT22;14965;50.660;13.226;2023-03-01T19:26:07;-2.00;99.90
27224;DHT22;14965;50.660;13.226;2023-03-01T19:28:35;-2.10;99.90
27224;DHT22;14965;50.660;13.226;2023-03-01T19:31:03;-2.20;99.90
27224;DHT22;14965;50.660;13.226;2023-03-01T19:33:32;-2.30;99.90
27224;DHT22;14965;50.660;13.226;2023-03-01T19:35:59;-2.30;99.90
27224;DHT22;14965;50.660;13.226;2023-03-01T19:38:26;-2.40;99.90
27224;DHT22;14965;50.660;13.226;2023-03-01T19:40:53;-2.30;99.90
27224;DHT22;14965;50.660;13.226;2023-03-01T19:43:20;-2.40;99.90
27224;DHT22;14965;50.660;13.226;2023-03-01T19:45:51;-2.30;99.90
27224;DHT22;14965;50.660;13.226;2023-03-01T19:48:18;-2.40;99.90
27224;DHT22;14965;50.660;13.226;2023-03-01T19:50:44;-2.40;99.90
27224;DHT22;14965;50.660;13.226;2023-03-01T19:53:11;-2.40;99.90
27224;DHT22;14965;50.660;13.226;2023-03-01T19:55:37;-2.50;99.90
27224;DHT22;14965;50.660;13.226;2023-03-01T19:58:04;-2.50;99.90
27224;DHT22;14965;50.660;13.226;2023-03-01T20:00:30;-2.60;99.90
27224;DHT22;14965;50.660;13.226;2023-03-01T20:02:58;-2.70;99.90
27224;DHT22;14965;50.660;13.226;2023-03-01T20:05:24;-2.70;99.90
27224;DHT22;14965;50.660;13.226;2023-03-01T20:07:50;-2.70;99.90
27224;DHT22;14965;50.660;13.226;2023-03-01T20:10:18;-2.70;99.90
27224;DHT22;14965;50.660;13.226;2023-03-01T20:12:44;-2.70;99.90
27224;DHT22;14965;50.660;13.226;2023-03-01T20:15:10;-2.80;99.90
27224;DHT22;14965;50.660;13.226;2023-03-01T20:17:36;-2.90;99.90
27224;DHT22;14965;50.660;13.226;2023-03-01T20:20:04;-3.00;99.90
27224;DHT22;14965;50.660;13.226;2023-03-01T20:22:30;-3.10;99.90
27224;DHT22;14965;50.660;13.226;2023-03-01T20:24:56;-3.10;99.90
27224;DHT22;14965;50.660;13.226;2023-03-01T20:27:25;-3.00;99.90
27224;DHT22;14965;50.660;13.226;2023-03-01T20:29:50;-2.90;99.90
27224;DHT22;14965;50.660;13.226;2023-03-01T20:32:16;-3.00;99.90
27224;DHT22;14965;50.660;13.226;2023-03-01T20:34:42;-3.00;99.90
27224;DHT22;14965;50.660;13.226;2023-03-01T20:37:09;-3.00;99.90
27224;DHT22;14965;50.660;13.226;2023-03-01T20:39:35;-3.00;99.90
27224;DHT22;14965;50.660;13.226;2023-03-01T20:42:01;-2.90;99.90
27224;DHT22;14965;50.660;13.226;2023-03-01T20:44:27;-2.90;99.90
27224;DHT22;14965;50.660;13.226;2023-03-01T20:46:54;-2.90;99.90
27224;DHT22;14965;50.660;13.226;2023-03-01T20:49:19;-2.90;99.90
27224;DHT22;14965;50.660;13.226;2023-03-01T20:51:45;-2.90;99.90
27224;DHT22;14965;50.660;13.226;2023-03-01T20:54:14;-3.00;99.90
27224;DHT22;14965;50.660;13.226;2023-03-01T20:56:41;-3.00;99.90
27224;DHT22;14965;50.660;13.226;2023-03-01T20:59:09;-3.00;99.90
27224;DHT22;14965;50.660;13.226;2023-03-01T21:01:37;-3.10;99.90
27224;DHT22;14965;50.660;13.226;2023-03-01T21:04:03;-3.20;99.90
27224;DHT22;14965;50.660;13.226;2023-03-01T21:06:29;-3.30;99.90
27224;DHT22;14965;50.660;13.226;2023-03-01T21:08:56;-3.30;99.90
27224;DHT22;14965;50.660;13.226;2023-03-01T21:11:23;-3.30;99.90
27224;DHT22;14965;50.660;13.226;2023-03-01T21:13:49;-3.30;99.90
27224;DHT22;14965;50.660;13.226;2023-03-01T21:16:15;-3.30;99.90
27224;DHT22;14965;50.660;13.226;2023-03-01T21:18:41;-3.30;99.90
27224;DHT22;14965;50.660;13.226;2023-03-01T21:21:09;-3.30;99.90
27224;DHT22;14965;50.660;13.226;2023-03-01T21:23:38;-3.30;99.90
27224;DHT22;14965;50.660;13.226;2023-03-01T21:26:07;-3.30;99.90
27224;DHT22;14965;50.660;13.226;2023-03-01T21:28:37;-3.30;99.90
27224;DHT22;14965;50.660;13.226;2023-03-01T21:31:05;-3.40;99.90
27224;DHT22;14965;50.660;13.226;2023-03-01T21:33:32;-3.40;99.90